Time;durP1;ratioP1;P1;durP2;ratioP2;P2;SDS_P1;SDS_P2;PMS_P1;PMS_P2;Temp;Humidity;BMP_temperature;BMP_pressure;BME280_temperature;BME280_humidity;BME280_pressure;Samples;Min_cycle;Max_cycle;Signal;HPM_P1;HPM_P2
2023/07/08 00:01:18;;;;;;;17.40;14.90;;;;;;;20.81;91.20;99698.82;107466;1254;71396;-80
2023/07/08 00:03:47;;;;;;;18.00;14.60;;;;;;;20.85;91.25;99698.18;106553;1254;59779;-84
2023/07/08 00:06:22;;;;;;;18.50;16.40;;;;;;;20.80;91.15;99697.31;106613;1254;59886;-84
2023/07/08 00:08:50;;;;;;;16.20;14.70;;;;;;;20.75;91.39;99696.35;106367;1254;71996;-84
2023/07/08 00:11:18;;;;;;;16.80;14.00;;;;;;;20.78;91.31;99700.46;108674;1253;69266;-80
2023/07/08 00:13:45;;;;;;;17.40;15.20;;;;;;;20.79;91.27;99697.47;108531;1254;71596;-80
2023/07/08 00:16:16;;;;;;;16.80;15.00;;;;;;;20.75;91.43;99698.90;108116;1252;59139;-79
2023/07/08 00:18:45;;;;;;;16.90;15.10;;;;;;;20.71;91.43;99698.97;106302;1257;60450;-80
2023/07/08 00:21:14;;;;;;;16.40;14.70;;;;;;;20.73;91.38;99695.33;106054;1254;70541;-80
2023/07/08 00:23:51;;;;;;;18.60;14.90;;;;;;;20.73;91.14;99695.65;106030;1259;68751;-79
2023/07/08 00:26:22;;;;;;;18.70;14.30;;;;;;;20.66;91.04;99691.24;105976;1254;73220;-78
2023/07/08 00:28:49;;;;;;;16.10;14.40;;;;;;;20.61;91.10;99690.05;106147;1257;60706;-79
2023/07/08 00:31:23;;;;;;;21.70;14.50;;;;;;;20.61;90.98;99689.52;106036;1252;59586;-76
2023/07/08 00:33:55;;;;;;;15.30;13.70;;;;;;;20.62;90.94;99689.05;105975;1254;71786;-78
2023/07/08 00:36:26;;;;;;;15.50;14.10;;;;;;;20.56;90.74;99688.62;106057;1258;69442;-78
2023/07/08 00:38:53;;;;;;;18.70;13.60;;;;;;;20.51;90.81;99686.76;106164;1254;71590;-79
2023/07/08 00:41:39;;;;;;;15.20;13.40;;;;;;;20.51;90.60;99686.34;107559;1253;62897;-76
2023/07/08 00:44:11;;;;;;;15.00;13.50;;;;;;;20.51;90.25;99681.80;109206;1252;59290;-78
2023/07/08 00:46:54;;;;;;;16.50;13.50;;;;;;;20.47;90.38;99680.80;108860;1253;71465;-79
2023/07/08 00:49:50;;;;;;;15.90;13.30;;;;;;;20.42;90.49;99678.35;107120;1254;70328;-81
2023/07/08 00:52:28;;;;;;;14.40;13.00;;;;;;;20.44;90.36;99671.61;106317;1259;72456;-80
2023/07/08 00:54:58;;;;;;;15.60;14.00;;;;;;;20.43;90.22;99674.19;106109;1253;61606;-79
2023/07/08 00:57:31;;;;;;;15.80;14.30;;;;;;;20.36;90.06;99675.80;106050;1259;59640;-81
2023/07/08 01:00:01;;;;;;;13.90;12.60;;;;;;;20.30;90.35;99672.52;106573;1254;73018;-79
2023/07/08 01:02:28;;;;;;;14.60;12.70;;;;;;;20.33;90.31;99679.23;107290;1254;68841;-78
2023/07/08 01:05:04;;;;;;;14.10;12.40;;;;;;;20.35;90.19;99670.64;107145;1253;72488;-77
2023/07/08 01:07:33;;;;;;;14.40;12.90;;;;;;;20.31;90.21;99673.45;107045;1254;60874;-80
2023/07/08 01:10:16;;;;;;;18.10;11.80;;;;;;;20.27;90.27;99670.56;106942;1254;60954;-80
2023/07/08 01:12:48;;;;;;;14.80;12.40;;;;;;;20.29;90.23;99670.88;109420;1252;71887;-80
2023/07/08 01:15:16;;;;;;;15.20;12.60;;;;;;;20.29;90.20;99671.36;109399;1253;68709;-79
2023/07/08 01:17:44;;;;;;;14.10;12.40;;;;;;;20.24;90.15;99664.77;106115;1254;71670;-80
2023/07/08 01:20:14;;;;;;;15.00;12.60;;;;;;;20.25;90.14;99670.71;106155;1256;60436;-80
2023/07/08 01:22:44;;;;;;;14.30;11.90;;;;;;;20.26;90.08;99672.09;106036;1258;59878;-79
2023/07/08 01:25:13;;;;;;;13.90;11.90;;;;;;;20.21;90.05;99668.05;105915;1259;72060;-79
2023/07/08 01:27:42;;;;;;;13.60;12.00;;;;;;;20.15;90.10;99666.83;106086;1254;70042;-79
2023/07/08 01:30:10;;;;;;;12.70;11.40;;;;;;;20.14;90.10;99667.88;105935;1254;71570;-76
2023/07/08 01:32:40;;;;;;;14.50;12.50;;;;;;;20.11;90.22;99666.67;106058;1258;60161;-78
2023/07/08 01:35:08;;;;;;;15.10;13.20;;;;;;;20.04;90.37;99661.81;106259;1254;59592;-79
2023/07/08 01:37:37;;;;;;;14.30;11.70;;;;;;;19.99;90.63;99662.06;105878;1254;73172;-76
2023/07/08 01:40:21;;;;;;;13.30;11.70;;;;;;;20.01;90.68;99663.48;106953;1253;69969;-76
2023/07/08 01:42:48;;;;;;;14.00;12.60;;;;;;;20.05;90.72;99661.26;107729;1254;71436;-76
2023/07/08 01:45:20;;;;;;;13.60;12.20;;;;;;;20.06;90.85;99657.65;109127;1253;59076;-76
2023/07/08 01:48:16;;;;;;;13.50;11.70;;;;;;;20.03;90.93;99654.25;106163;1254;60293;-77
2023/07/08 01:51:06;;;;;;;15.30;11.60;;;;;;;20.05;90.76;99654.66;106047;1254;73097;-75
2023/07/08 01:53:37;;;;;;;12.10;11.00;;;;;;;20.06;90.70;99652.73;106382;1252;69952;-80
2023/07/08 01:56:04;;;;;;;17.50;11.70;;;;;;;20.01;90.87;99649.34;106215;1253;71120;-79
2023/07/08 01:58:33;;;;;;;14.10;11.80;;;;;;;19.95;90.98;99650.86;106169;1254;61939;-80
2023/07/08 02:01:01;;;;;;;12.30;11.00;;;;;;;19.97;91.11;99651.77;106090;1253;59700;-79
2023/07/08 02:03:29;;;;;;;13.00;11.70;;;;;;;20.00;90.98;99649.35;106295;1254;73553;-79
2023/07/08 02:05:57;;;;;;;13.50;11.70;;;;;;;19.96;91.20;99652.19;106264;1259;69217;-77
2023/07/08 02:08:25;;;;;;;13.30;11.90;;;;;;;19.91;91.51;99656.96;106157;1254;71073;-80
2023/07/08 02:10:55;;;;;;;12.50;11.20;;;;;;;19.92;91.61;99655.70;107171;1253;60407;-79
2023/07/08 02:13:23;;;;;;;12.70;11.40;;;;;;;19.95;91.62;99649.14;109198;1253;59314;-79
2023/07/08 02:15:51;;;;;;;12.50;11.30;;;;;;;19.98;91.75;99652.00;109039;1253;71862;-82
2023/07/08 02:18:19;;;;;;;14.30;11.70;;;;;;;19.96;91.82;99652.23;107164;1259;69068;-79
2023/07/08 02:20:47;;;;;;;11.60;10.40;;;;;;;19.95;91.76;99660.31;106115;1254;71950;-88
2023/07/08 02:23:15;;;;;;;12.60;11.00;;;;;;;19.96;91.67;99661.56;106180;1253;62109;-80
2023/07/08 02:25:53;;;;;;;13.20;11.40;;;;;;;19.96;91.61;99666.04;106036;1254;60019;-80
2023/07/08 02:28:21;;;;;;;14.80;11.40;;;;;;;19.93;91.67;99670.81;106024;1253;72060;-77
2023/07/08 02:30:49;;;;;;;16.40;10.90;;;;;;;19.96;91.47;99669.98;105964;1254;70102;-76
2023/07/08 02:33:19;;;;;;;12.20;10.60;;;;;;;19.97;91.09;99670.39;106007;1254;71366;-78
2023/07/08 02:35:46;;;;;;;11.80;10.60;;;;;;;19.94;90.98;99668.58;106166;1253;59730;-77
2023/07/08 02:38:15;;;;;;;15.40;11.20;;;;;;;19.87;90.80;99670.50;106238;1254;60478;-79
2023/07/08 02:40:43;;;;;;;12.00;10.00;;;;;;;19.86;90.68;99671.39;106235;1254;72810;-79
2023/07/08 02:43:10;;;;;;;12.70;11.40;;;;;;;19.86;90.63;99674.79;107677;1253;69452;-76
2023/07/08 02:45:38;;;;;;;12.90;10.20;;;;;;;19.79;90.81;99673.61;108530;1254;71289;-78
2023/07/08 02:48:05;;;;;;;10.80;9.70;;;;;;;19.75;90.96;99672.58;105895;1254;61717;-78
2023/07/08 02:50:34;;;;;;;13.50;10.50;;;;;;;19.79;90.76;99676.35;105946;1254;59736;-77
2023/07/08 02:53:01;;;;;;;14.20;10.80;;;;;;;19.81;90.48;99677.36;106256;1256;73135;-77
2023/07/08 02:55:28;;;;;;;11.50;10.30;;;;;;;19.75;90.45;99674.46;106410;1256;69066;-76
2023/07/08 02:57:56;;;;;;;11.50;10.00;;;;;;;19.68;90.62;99677.92;106299;1254;72551;-77
2023/07/08 03:00:24;;;;;;;15.30;10.70;;;;;;;19.69;90.82;99678.54;106051;1253;60742;-76
2023/07/08 03:02:51;;;;;;;10.50;9.40;;;;;;;19.72;91.05;99677.11;105974;1254;60411;-77
2023/07/08 03:05:19;;;;;;;11.60;10.40;;;;;;;19.71;90.91;99679.11;105932;1257;73846;-77
2023/07/08 03:07:46;;;;;;;10.90;9.60;;;;;;;19.67;91.13;99675.57;106005;1257;69350;-77
2023/07/08 03:10:14;;;;;;;11.70;9.60;;;;;;;19.68;91.21;99673.27;106105;1254;72801;-78
2023/07/08 03:12:43;;;;;;;12.50;9.40;;;;;;;19.70;91.42;99674.13;107114;1254;62589;-77
2023/07/08 03:15:11;;;;;;;11.10;10.00;;;;;;;19.69;91.49;99674.71;108959;1254;58890;-75
2023/07/08 03:17:39;;;;;;;13.10;10.60;;;;;;;19.67;91.45;99673.25;105799;1253;73753;-76
2023/07/08 03:20:10;;;;;;;11.20;10.00;;;;;;;19.65;91.45;99673.33;106093;1259;70712;-78
2023/07/08 03:22:38;;;;;;;12.60;10.10;;;;;;;19.68;91.08;99673.69;106375;1258;71551;-77
2023/07/08 03:25:06;;;;;;;11.00;9.40;;;;;;;19.68;91.02;99675.52;106061;1254;60514;-77
2023/07/08 03:27:36;;;;;;;10.60;9.50;;;;;;;19.63;90.91;99676.38;106315;1254;60308;-79
2023/07/08 03:30:06;;;;;;;11.70;9.70;;;;;;;19.62;90.89;99682.48;105856;1257;73840;-80
2023/07/08 03:32:34;;;;;;;13.50;9.30;;;;;;;19.66;90.82;99674.67;105944;1254;69494;-81
2023/07/08 03:35:02;;;;;;;11.20;9.40;;;;;;;19.66;90.78;99675.48;106009;1254;73337;-82
2023/07/08 03:37:30;;;;;;;12.10;9.00;;;;;;;19.60;90.77;99673.81;105907;1257;60476;-81
2023/07/08 03:39:58;;;;;;;11.70;8.90;;;;;;;19.60;90.74;99675.50;106070;1254;60554;-80
2023/07/08 03:42:25;;;;;;;9.10;8.20;;;;;;;19.63;90.68;99674.59;108099;1252;72712;-79
2023/07/08 03:44:53;;;;;;;9.90;8.90;;;;;;;19.60;90.65;99674.20;109498;1252;68709;-82
2023/07/08 03:47:21;;;;;;;10.40;8.70;;;;;;;19.58;90.65;99672.36;106137;1260;71254;-80
2023/07/08 03:49:49;;;;;;;9.40;8.40;;;;;;;19.61;90.11;99668.03;105773;1252;60581;-77
2023/07/08 03:52:17;;;;;;;12.10;8.80;;;;;;;19.63;89.54;99662.61;105955;1256;60533;-80
2023/07/08 03:54:45;;;;;;;12.00;9.40;;;;;;;19.58;89.35;99661.59;105818;1253;72630;-80
2023/07/08 03:57:13;;;;;;;10.10;9.00;;;;;;;19.55;89.20;99661.46;106193;1256;68832;-77
2023/07/08 03:59:40;;;;;;;10.20;9.10;;;;;;;19.57;88.82;99660.92;105929;1254;72821;-81
2023/07/08 04:02:10;;;;;;;12.10;10.00;;;;;;;19.56;88.34;99652.48;106010;1254;60439;-82
2023/07/08 04:04:39;;;;;;;11.00;9.30;;;;;;;19.49;88.25;99655.64;105896;1254;60546;-81
2023/07/08 04:07:06;;;;;;;13.60;9.00;;;;;;;19.46;88.24;99654.61;106207;1254;72676;-84
2023/07/08 04:09:35;;;;;;;10.30;9.10;;;;;;;19.50;88.12;99646.77;106955;1252;69070;-83
2023/07/08 04:12:04;;;;;;;10.80;9.30;;;;;;;19.50;87.78;99643.44;109522;1253;71435;-82
2023/07/08 04:14:32;;;;;;;13.30;8.90;;;;;;;19.47;87.58;99642.04;106311;1254;60120;-83
2023/07/08 04:16:59;;;;;;;11.30;9.30;;;;;;;19.45;87.39;99638.41;107173;1252;60392;-83
2023/07/08 04:19:27;;;;;;;11.00;9.10;;;;;;;19.49;87.30;99638.20;109235;1253;72581;-82
2023/07/08 04:21:55;;;;;;;11.90;9.40;;;;;;;19.51;87.14;99634.47;109335;1253;68598;-81
2023/07/08 04:24:22;;;;;;;11.30;9.30;;;;;;;19.51;86.91;99632.03;109385;1253;71104;-83
2023/07/08 04:26:50;;;;;;;12.60;9.50;;;;;;;19.56;86.65;99632.21;109268;1253;63079;-83
2023/07/08 04:29:20;;;;;;;10.10;9.10;;;;;;;19.62;86.46;99628.27;109455;1253;58877;-83
2023/07/08 04:31:48;;;;;;;12.60;9.60;;;;;;;19.60;86.07;99633.30;109482;1252;72663;-82
2023/07/08 04:34:16;;;;;;;12.70;9.10;;;;;;;19.61;85.87;99626.95;109381;1253;69356;-82
2023/07/08 04:36:44;;;;;;;15.20;9.40;;;;;;;19.67;85.47;99628.53;109497;1252;71569;-82
2023/07/08 04:39:11;;;;;;;11.80;8.90;;;;;;;19.74;85.30;99620.69;109461;1252;59001;-86
2023/07/08 04:41:40;;;;;;;10.20;8.70;;;;;;;19.77;85.35;99616.62;109608;1252;59089;-86
2023/07/08 04:44:12;;;;;;;9.60;8.60;;;;;;;19.79;85.14;99614.31;109439;1253;72583;-84
2023/07/08 04:46:50;;;;;;;10.80;9.30;;;;;;;19.87;84.67;99610.13;109304;1252;68725;-81
2023/07/08 04:49:18;;;;;;;9.60;8.70;;;;;;;19.85;84.19;99608.73;109367;1254;71515;-81
2023/07/08 04:51:46;;;;;;;10.90;8.60;;;;;;;19.82;84.48;99608.82;109228;1254;60726;-80
2023/07/08 04:54:14;;;;;;;8.90;7.70;;;;;;;19.90;84.60;99607.52;109237;1252;58768;-78
2023/07/08 04:56:45;;;;;;;9.70;8.00;;;;;;;19.96;84.31;99611.74;109229;1252;72602;-79
2023/07/08 04:59:15;;;;;;;9.70;8.60;;;;;;;19.96;84.05;99604.30;109092;1254;69035;-81
2023/07/08 05:01:43;;;;;;;8.80;7.80;;;;;;;19.92;83.70;99609.59;109098;1254;71292;-79
2023/07/08 05:04:13;;;;;;;9.00;8.10;;;;;;;19.92;83.51;99607.39;109299;1253;62929;-84
2023/07/08 05:06:41;;;;;;;11.30;7.70;;;;;;;19.95;83.84;99608.05;109262;1253;58819;-78
2023/07/08 05:09:08;;;;;;;12.10;8.10;;;;;;;19.92;83.56;99606.48;109414;1252;72712;-78
2023/07/08 05:11:36;;;;;;;11.30;8.60;;;;;;;19.89;83.57;99607.19;109346;1254;69049;-74
2023/07/08 05:14:04;;;;;;;10.10;7.40;;;;;;;19.92;83.43;99605.02;109446;1253;71404;-76
2023/07/08 05:16:32;;;;;;;8.80;7.50;;;;;;;19.97;83.30;99611.00;109359;1252;59281;-77
2023/07/08 05:19:00;;;;;;;10.40;8.40;;;;;;;19.95;83.26;99608.88;109061;1253;60419;-79
2023/07/08 05:21:29;;;;;;;11.50;7.60;;;;;;;19.95;83.56;99609.29;108479;1254;72591;-79
2023/07/08 05:23:56;;;;;;;10.70;7.60;;;;;;;20.04;83.24;99604.38;108351;1253;69333;-76
2023/07/08 05:26:24;;;;;;;10.60;6.90;;;;;;;20.06;82.70;99601.85;108416;1253;71350;-76
2023/07/08 05:28:51;;;;;;;9.90;7.60;;;;;;;20.02;82.43;99606.44;109305;1254;60447;-76
2023/07/08 05:31:18;;;;;;;10.20;7.60;;;;;;;20.00;82.39;99596.34;109282;1252;58762;-76
2023/07/08 05:33:46;;;;;;;10.00;7.10;;;;;;;20.04;82.21;99595.23;108823;1253;73068;-77
2023/07/08 05:36:13;;;;;;;10.10;7.20;;;;;;;20.04;82.02;99591.23;108855;1252;71265;-76
2023/07/08 05:38:41;;;;;;;10.40;6.90;;;;;;;20.00;82.05;99590.73;108928;1253;70607;-73
2023/07/08 05:41:08;;;;;;;7.70;6.80;;;;;;;20.02;82.20;99586.44;109257;1254;60482;-73
2023/07/08 05:43:35;;;;;;;12.20;7.40;;;;;;;20.09;82.08;99584.86;109471;1252;58759;-73
2023/07/08 05:46:03;;;;;;;10.90;7.30;;;;;;;20.12;81.83;99580.52;109136;1254;72599;-74
2023/07/08 05:48:39;;;;;;;14.00;7.60;;;;;;;20.11;81.57;99581.27;109273;1253;70049;-74
2023/07/08 05:51:06;;;;;;;7.20;6.50;;;;;;;20.15;81.59;99577.12;108855;1254;72481;-72
2023/07/08 05:53:34;;;;;;;7.80;7.00;;;;;;;20.22;81.47;99569.02;108910;1253;58859;-72
2023/07/08 05:56:02;;;;;;;8.50;6.40;;;;;;;20.22;81.00;99573.85;109074;1252;60965;-75
2023/07/08 05:58:29;;;;;;;10.10;6.00;;;;;;;20.21;80.85;99576.14;108404;1253;72575;-74
2023/07/08 06:00:57;;;;;;;7.80;6.80;;;;;;;20.26;80.51;99579.38;108622;1253;68710;-76
2023/07/08 06:03:26;;;;;;;9.40;6.30;;;;;;;20.26;80.37;99587.69;108820;1254;71942;-74
2023/07/08 06:05:53;;;;;;;7.10;6.40;;;;;;;20.21;80.53;99598.80;108505;1253;60425;-77
2023/07/08 06:08:21;;;;;;;9.30;6.40;;;;;;;20.22;80.47;99595.79;109252;1252;59090;-75
2023/07/08 06:10:49;;;;;;;7.70;6.00;;;;;;;20.26;80.29;99601.52;109221;1253;71676;-73
2023/07/08 06:13:16;;;;;;;7.70;5.50;;;;;;;20.22;80.20;99607.45;109136;1253;68823;-74
2023/07/08 06:15:43;;;;;;;10.60;6.30;;;;;;;20.16;80.49;99604.22;107015;1256;71208;-76
2023/07/08 06:18:11;;;;;;;8.90;6.40;;;;;;;20.16;80.22;99598.89;105895;1257;60405;-74
2023/07/08 06:20:38;;;;;;;7.60;5.90;;;;;;;20.18;80.00;99608.27;105840;1254;60489;-75
2023/07/08 06:23:06;;;;;;;8.10;6.20;;;;;;;20.15;80.19;99601.46;106024;1257;73750;-73
2023/07/08 06:25:33;;;;;;;7.80;6.60;;;;;;;20.11;80.68;99599.47;106044;1258;68722;-74
2023/07/08 06:28:01;;;;;;;6.90;6.00;;;;;;;20.08;80.98;99601.61;105900;1256;71833;-71
2023/07/08 06:30:28;;;;;;;10.40;6.20;;;;;;;20.12;80.73;99593.73;105934;1254;61834;-74
2023/07/08 06:32:55;;;;;;;11.40;7.00;;;;;;;20.11;80.78;99598.02;106050;1258;60416;-78
2023/07/08 06:35:26;;;;;;;8.90;7.00;;;;;;;20.03;81.27;99601.93;105889;1252;73924;-75
2023/07/08 06:37:54;;;;;;;11.10;6.40;;;;;;;19.95;81.87;99593.32;105929;1254;70654;-75
2023/07/08 06:40:21;;;;;;;8.80;5.60;;;;;;;19.95;82.38;99592.31;108068;1254;72720;-76
2023/07/08 06:42:48;;;;;;;8.80;5.80;;;;;;;19.94;82.42;99601.66;108716;1253;59253;-76
2023/07/08 06:45:48;;;;;;;9.90;6.20;;;;;;;19.85;83.25;99601.02;107031;1256;60437;-76
2023/07/08 06:48:16;;;;;;;9.90;5.90;;;;;;;19.77;83.58;99601.30;105939;1259;74017;-77
2023/07/08 06:50:47;;;;;;;10.00;5.60;;;;;;;19.75;83.77;99601.20;105973;1259;71981;-78
2023/07/08 06:53:15;;;;;;;8.00;6.60;;;;;;;19.74;83.65;99609.26;106113;1258;70814;-75
2023/07/08 06:55:45;;;;;;;8.40;6.40;;;;;;;19.67;83.48;99608.42;105965;1254;60417;-76
2023/07/08 06:58:13;;;;;;;7.60;6.30;;;;;;;19.57;83.62;99615.70;105833;1259;60362;-75
2023/07/08 07:00:44;;;;;;;7.50;6.10;;;;;;;19.55;83.96;99611.50;106151;1254;73873;-76
2023/07/08 07:03:12;;;;;;;9.30;5.20;;;;;;;19.57;84.32;99608.52;106071;1259;69320;-74
2023/07/08 07:05:40;;;;;;;8.00;5.70;;;;;;;19.55;84.57;99608.64;106272;1254;73701;-75
2023/07/08 07:08:07;;;;;;;11.00;5.60;;;;;;;19.51;84.68;99608.11;106192;1253;60397;-76
2023/07/08 07:10:38;;;;;;;7.00;5.70;;;;;;;19.53;84.86;99611.39;107884;1252;60475;-75
2023/07/08 07:13:06;;;;;;;7.20;5.50;;;;;;;19.55;85.44;99616.93;108781;1253;72645;-75
2023/07/08 07:15:33;;;;;;;9.50;6.10;;;;;;;19.51;85.84;99612.42;108231;1254;70342;-75
2023/07/08 07:18:01;;;;;;;9.50;5.90;;;;;;;19.47;85.67;99613.77;106121;1254;72980;-74
2023/07/08 07:20:29;;;;;;;8.70;6.50;;;;;;;19.48;85.74;99621.02;106203;1254;61732;-75
2023/07/08 07:22:57;;;;;;;9.80;6.30;;;;;;;19.49;85.93;99616.18;106179;1254;60039;-79
2023/07/08 07:25:24;;;;;;;7.80;5.50;;;;;;;19.44;85.88;99623.09;106283;1257;73838;-74
2023/07/08 07:27:52;;;;;;;7.00;5.90;;;;;;;19.38;85.72;99624.95;106060;1253;70276;-76
2023/07/08 07:30:19;;;;;;;7.80;5.70;;;;;;;19.41;85.85;99631.17;106197;1257;71418;-76
2023/07/08 07:32:47;;;;;;;7.40;5.70;;;;;;;19.44;86.01;99635.31;106178;1253;61663;-75
2023/07/08 07:35:15;;;;;;;7.90;6.00;;;;;;;19.46;86.44;99633.52;106024;1254;62283;-76
2023/07/08 07:37:42;;;;;;;10.10;5.80;;;;;;;19.41;86.74;99633.99;106031;1258;73815;-74
2023/07/08 07:40:12;;;;;;;12.00;6.20;;;;;;;19.41;86.56;99625.46;105855;1254;70285;-75
2023/07/08 07:42:40;;;;;;;7.10;5.50;;;;;;;19.47;86.37;99633.20;108121;1253;72733;-74
2023/07/08 07:45:08;;;;;;;5.90;5.20;;;;;;;19.52;85.98;99639.55;109122;1253;60527;-77
2023/07/08 07:47:36;;;;;;;6.70;6.10;;;;;;;19.56;85.64;99642.29;108559;1254;59404;-79
2023/07/08 07:50:04;;;;;;;6.00;5.40;;;;;;;19.57;85.83;99643.68;106204;1259;73807;-75
2023/07/08 07:52:32;;;;;;;6.30;5.50;;;;;;;19.57;85.41;99640.23;106005;1253;70092;-74
2023/07/08 07:54:59;;;;;;;5.30;4.60;;;;;;;19.61;85.12;99644.36;105899;1259;71474;-75
2023/07/08 07:57:27;;;;;;;7.20;5.30;;;;;;;19.63;84.82;99645.55;106051;1254;60494;-73
2023/07/08 07:59:54;;;;;;;9.80;5.90;;;;;;;19.58;84.59;99646.72;106062;1254;60454;-75
2023/07/08 08:02:21;;;;;;;6.50;5.20;;;;;;;19.51;85.09;99642.71;105877;1259;74048;-76
2023/07/08 08:04:49;;;;;;;8.00;5.60;;;;;;;19.53;85.26;99641.53;106015;1254;68903;-74
2023/07/08 08:07:16;;;;;;;6.40;4.80;;;;;;;19.56;85.47;99637.39;105994;1256;71332;-76
2023/07/08 08:09:43;;;;;;;6.30;4.80;;;;;;;19.56;85.49;99640.38;106045;1254;61050;-73
2023/07/08 08:12:11;;;;;;;5.90;5.30;;;;;;;19.51;85.89;99636.02;105971;1254;60540;-74
2023/07/08 08:14:38;;;;;;;7.40;5.00;;;;;;;19.50;86.20;99637.28;108287;1253;73318;-74
2023/07/08 08:17:06;;;;;;;6.90;4.90;;;;;;;19.54;86.38;99642.84;108585;1254;70438;-75
2023/07/08 08:19:33;;;;;;;6.60;5.00;;;;;;;19.56;86.54;99640.08;107324;1256;71157;-75
2023/07/08 08:22:01;;;;;;;6.40;4.90;;;;;;;19.52;85.97;99642.20;106108;1254;60543;-76
2023/07/08 08:24:28;;;;;;;6.70;4.90;;;;;;;19.49;86.01;99642.27;106034;1254;60406;-76
2023/07/08 08:26:56;;;;;;;7.70;4.30;;;;;;;19.52;86.31;99645.15;106174;1254;73906;-76
2023/07/08 08:29:23;;;;;;;6.20;5.00;;;;;;;19.52;85.79;99641.55;106023;1254;70116;-75
2023/07/08 08:31:50;;;;;;;5.80;4.60;;;;;;;19.48;86.39;99647.04;105943;1258;72735;-76
2023/07/08 08:34:18;;;;;;;5.80;4.60;;;;;;;19.48;86.79;99647.42;105969;1254;60316;-74
2023/07/08 08:36:45;;;;;;;6.60;4.60;;;;;;;19.49;86.67;99650.52;106028;1254;61250;-74
2023/07/08 08:39:13;;;;;;;11.00;4.40;;;;;;;19.46;86.69;99652.82;106132;1254;72585;-74
2023/07/08 08:41:41;;;;;;;6.50;4.90;;;;;;;19.47;86.73;99650.16;106034;1254;70690;-73
2023/07/08 08:44:16;;;;;;;6.20;4.30;;;;;;;19.46;86.60;99648.23;106348;1254;71380;-73
2023/07/08 08:47:16;;;;;;;8.50;5.20;;;;;;;19.50;86.19;99658.03;108768;1254;59418;-76
2023/07/08 08:49:46;;;;;;;4.90;4.10;;;;;;;19.54;86.25;99663.15;106879;1254;62381;-73
2023/07/08 08:52:14;;;;;;;6.60;4.40;;;;;;;19.58;87.26;99667.20;106180;1254;72611;-76
2023/07/08 08:54:43;;;;;;;5.10;4.40;;;;;;;19.59;89.54;99664.58;105943;1254;69650;-77
2023/07/08 08:57:32;;;;;;;5.80;3.80;;;;;;;19.61;89.30;99669.21;105996;1254;71482;-74
2023/07/08 08:59:59;;;;;;;7.50;4.00;;;;;;;19.58;88.49;99675.33;105903;1254;60541;-75
2023/07/08 09:02:32;;;;;;;8.60;4.20;;;;;;;19.55;89.35;99682.63;105823;1254;60508;-72
2023/07/08 09:05:07;;;;;;;6.20;4.40;;;;;;;19.51;89.14;99683.17;105959;1254;73842;-74
2023/07/08 09:07:42;;;;;;;4.20;3.80;;;;;;;19.49;89.13;99688.88;105916;1258;68731;-74
2023/07/08 09:10:16;;;;;;;6.40;3.50;;;;;;;19.44;88.92;99693.59;105914;1259;71448;-76
2023/07/08 09:12:43;;;;;;;4.40;3.70;;;;;;;19.39;89.54;99695.52;105937;1253;60566;-74
2023/07/08 09:15:14;;;;;;;5.30;3.50;;;;;;;19.34;89.50;99702.05;106631;1252;60441;-75
2023/07/08 09:17:42;;;;;;;6.80;4.00;;;;;;;19.28;90.63;99710.98;108815;1254;72589;-75
2023/07/08 09:20:28;;;;;;;6.00;3.40;;;;;;;19.27;90.98;99718.88;107679;1254;70316;-74
2023/07/08 09:23:29;;;;;;;5.30;3.60;;;;;;;19.25;91.74;99721.46;105774;1259;74761;-74
2023/07/08 09:26:01;;;;;;;4.00;3.50;;;;;;;19.25;91.52;99722.59;105773;1259;63292;-75
2023/07/08 09:28:42;;;;;;;6.10;3.60;;;;;;;19.23;89.56;99724.52;105879;1259;60501;-76
2023/07/08 09:31:37;;;;;;;6.60;3.90;;;;;;;19.20;88.58;99721.85;105796;1254;73843;-75
2023/07/08 09:34:15;;;;;;;6.00;3.60;;;;;;;19.18;88.24;99722.16;105946;1256;68738;-75
2023/07/08 09:36:47;;;;;;;6.00;3.30;;;;;;;19.16;88.00;99724.92;105802;1254;72790;-77
2023/07/08 09:39:20;;;;;;;7.40;3.60;;;;;;;19.15;88.51;99720.50;105874;1259;60771;-75
2023/07/08 09:41:48;;;;;;;6.90;3.90;;;;;;;19.13;88.77;99722.98;105907;1258;60431;-76
2023/07/08 09:44:17;;;;;;;4.80;3.80;;;;;;;19.12;88.60;99723.64;107356;1254;73897;-74
2023/07/08 09:46:45;;;;;;;7.60;3.40;;;;;;;19.09;88.51;99725.42;108809;1254;68503;-74
2023/07/08 09:49:20;;;;;;;6.00;3.80;;;;;;;19.08;88.83;99724.23;107934;1254;71283;-76
2023/07/08 09:51:50;;;;;;;6.00;3.70;;;;;;;19.05;89.15;99726.21;106564;1259;60964;-72
2023/07/08 09:54:18;;;;;;;4.90;4.40;;;;;;;19.01;88.71;99728.29;105959;1253;60702;-74
2023/07/08 09:56:55;;;;;;;6.40;3.90;;;;;;;18.96;89.66;99732.30;106158;1259;73895;-76
2023/07/08 09:59:26;;;;;;;5.10;3.90;;;;;;;18.91;90.06;99734.98;106138;1254;70723;-75
2023/07/08 10:01:54;;;;;;;3.90;3.20;;;;;;;18.85;90.31;99732.83;105798;1259;72381;-73
2023/07/08 10:04:21;;;;;;;7.60;3.30;;;;;;;18.78;90.65;99731.44;105837;1254;61749;-75
2023/07/08 10:06:49;;;;;;;6.80;3.60;;;;;;;18.69;90.38;99730.11;105886;1254;60303;-74
2023/07/08 10:09:19;;;;;;;5.00;3.10;;;;;;;18.63;91.14;99733.26;105955;1259;74055;-73
2023/07/08 10:11:51;;;;;;;6.30;3.30;;;;;;;18.60;91.55;99733.95;106039;1256;67738;-75
2023/07/08 10:14:27;;;;;;;7.70;3.80;;;;;;;18.61;91.85;99734.73;105869;1253;71332;-75
2023/07/08 10:16:55;;;;;;;5.70;3.90;;;;;;;18.60;92.71;99733.95;107301;1252;61694;-75
2023/07/08 10:19:22;;;;;;;9.00;3.70;;;;;;;18.58;92.63;99731.11;108611;1253;58759;-75
2023/07/08 10:22:06;;;;;;;5.80;3.90;;;;;;;18.60;92.71;99730.92;107315;1254;72007;-77
2023/07/08 10:25:02;;;;;;;7.70;3.90;;;;;;;18.62;93.00;99731.66;105705;1254;69990;-76
2023/07/08 10:27:45;;;;;;;8.70;4.10;;;;;;;18.65;93.13;99735.36;105716;1256;72703;-74
2023/07/08 10:30:22;;;;;;;6.50;3.80;;;;;;;18.67;93.63;99735.75;105947;1259;60437;-73
2023/07/08 10:33:22;;;;;;;6.40;4.70;;;;;;;18.70;94.68;99737.88;106048;1259;60767;-74
2023/07/08 10:36:18;;;;;;;5.30;3.70;;;;;;;18.72;94.06;99738.20;105690;1258;73861;-74
2023/07/08 10:39:18;;;;;;;4.50;3.60;;;;;;;18.73;93.88;99735.21;106171;1254;69975;-74
2023/07/08 10:41:58;;;;;;;5.10;3.80;;;;;;;18.72;93.35;99735.42;105955;1257;71410;-76
2023/07/08 10:44:28;;;;;;;7.10;3.90;;;;;;;18.75;94.35;99734.97;106021;1254;60694;-73
2023/07/08 10:46:59;;;;;;;5.00;3.60;;;;;;;18.80;94.22;99738.27;107519;1252;60426;-74
2023/07/08 10:49:54;;;;;;;4.50;3.80;;;;;;;18.84;93.31;99730.10;108872;1254;71723;-77
2023/07/08 10:52:35;;;;;;;6.10;3.60;;;;;;;18.89;93.11;99730.78;107719;1254;69954;-74
2023/07/08 10:55:18;;;;;;;4.70;3.50;;;;;;;18.94;92.24;99727.56;106231;1254;71653;-73
2023/07/08 10:57:45;;;;;;;8.10;3.60;;;;;;;19.01;91.90;99728.73;106177;1259;60456;-73
2023/07/08 11:04:32;;;;;;;6.50;4.00;;;;;;;19.17;90.79;99725.73;103617;1294;603747;-73
2023/07/08 11:07:25;;;;;;;4.10;3.50;;;;;;;19.21;88.45;99728.14;106994;1260;60549;-74
2023/07/08 11:09:54;;;;;;;4.10;3.70;;;;;;;19.27;88.60;99721.94;106332;1254;60225;-71
2023/07/08 11:12:45;;;;;;;7.40;4.00;;;;;;;19.32;88.06;99722.46;106343;1254;72070;-73
2023/07/08 11:15:23;;;;;;;4.80;3.80;;;;;;;19.38;87.72;99723.43;106193;1257;69100;-75
2023/07/08 11:17:57;;;;;;;5.40;3.60;;;;;;;19.41;86.68;99721.44;106403;1254;209853;-75
2023/07/08 11:20:39;;;;;;;7.40;3.70;;;;;;;19.46;86.11;99718.81;108386;1251;62161;-76
2023/07/08 11:23:40;;;;;;;6.40;4.50;;;;;;;19.51;85.07;99720.98;108845;1251;58819;-76
2023/07/08 11:26:15;;;;;;;5.10;3.60;;;;;;;19.57;84.81;99720.25;107072;1251;72166;-74
2023/07/08 11:28:43;;;;;;;3.80;3.50;;;;;;;19.61;83.78;99718.48;106208;1254;70408;-76
2023/07/08 11:31:09;;;;;;;8.30;3.30;;;;;;;19.67;83.80;99719.28;106228;1251;72633;-77
2023/07/08 11:33:36;;;;;;;7.70;3.20;;;;;;;19.71;83.56;99714.67;106271;1250;61982;-72
2023/07/08 11:36:03;;;;;;;6.50;5.00;;;;;;;19.76;82.60;99714.79;106253;1257;60210;-74
2023/07/08 11:38:32;;;;;;;6.80;6.20;;;;;;;19.81;82.47;99713.27;106284;1257;71694;-75
2023/07/08 11:41:04;;;;;;;6.40;5.80;;;;;;;19.85;82.25;99711.95;106218;1257;70117;-77